createdAt,value
2018-10-02T00:00:41.306Z,96.2
2018-10-02T00:01:42.681Z,96.4
2018-10-02T00:02:44.077Z,96.4
2018-10-02T00:03:45.458Z,96.1
2018-10-02T00:04:46.860Z,96.8
2018-10-02T00:05:48.246Z,96.9
2018-10-02T00:06:49.633Z,96.6
2018-10-02T00:07:51.014Z,96.6
2018-10-02T00:08:52.453Z,96.9
2018-10-02T00:09:53.813Z,97.3
2018-10-02T00:10:55.197Z,97.7
2018-10-02T00:11:56.599Z,97.8
2018-10-02T00:12:57.973Z,98.0
2018-10-02T00:13:59.399Z,98.2
2018-10-02T00:15:00.781Z,98.0
2018-10-02T00:16:02.168Z,97.8
2018-10-02T00:17:03.587Z,98.4
2018-10-02T00:18:04.968Z,98.4
2018-10-02T00:19:06.352Z,98.6
2018-10-02T00:20:07.743Z,98.4
2018-10-02T00:21:09.142Z,98.7
2018-10-02T00:22:10.522Z,98.9
2018-10-02T00:23:11.934Z,99.3
2018-10-02T00:24:13.353Z,99.3
2018-10-02T00:25:14.735Z,99.5
2018-10-02T00:26:16.121Z,100.0
2018-10-02T00:27:17.507Z,100.0
2018-10-02T00:28:18.895Z,100.0
2018-10-02T00:29:20.292Z,100.0
2018-10-02T00:30:21.677Z,100.0
2018-10-02T00:31:23.121Z,100.0
2018-10-02T00:32:24.554Z,100.0
2018-10-02T00:33:25.836Z,100.0
2018-10-02T00:34:27.225Z,100.0
2018-10-02T00:35:28.615Z,100.0
2018-10-02T00:36:29.997Z,100.0
2018-10-02T00:37:31.385Z,100.0
2018-10-02T00:38:32.773Z,100.0
2018-10-02T00:39:34.152Z,100.0
2018-10-02T00:40:35.541Z,100.0
2018-10-02T00:41:36.929Z,100.0
2018-10-02T00:42:38.321Z,100.0
2018-10-02T00:43:39.704Z,100.0
2018-10-02T00:44:41.085Z,100.0
2018-10-02T00:45:42.479Z,100.0
2018-10-02T00:46:43.861Z,100.0
2018-10-02T00:47:45.255Z,100.0
2018-10-02T00:48:46.639Z,100.0
2018-10-02T00:49:48.034Z,100.0
2018-10-02T00:50:49.421Z,100.0
2018-10-02T00:51:50.801Z,100.0
2018-10-02T00:52:52.183Z,100.0
2018-10-02T00:53:53.572Z,100.0
2018-10-02T00:54:54.957Z,100.0
2018-10-02T00:55:56.348Z,100.0
2018-10-02T00:56:57.732Z,100.0
2018-10-02T00:57:59.120Z,100.0
2018-10-02T00:59:00.508Z,100.0
2018-10-02T01:00:01.895Z,100.0
2018-10-02T01:01:03.280Z,100.0
2018-10-02T01:02:04.673Z,100.0
2018-10-02T01:03:06.051Z,100.0
2018-10-02T01:04:07.442Z,100.0
2018-10-02T01:05:08.817Z,100.0
2018-10-02T01:06:10.203Z,100.0
2018-10-02T01:07:11.586Z,100.0
2018-10-02T01:08:12.970Z,99.7
2018-10-02T01:09:14.357Z,99.9
2018-10-02T01:10:15.745Z,99.8
2018-10-02T01:11:17.131Z,99.9
2018-10-02T01:12:18.513Z,99.7
2018-10-02T01:13:19.900Z,100.0
2018-10-02T01:14:21.285Z,100.0
2018-10-02T01:15:22.677Z,100.0
2018-10-02T01:16:24.059Z,100.0
2018-10-02T01:17:25.449Z,100.0
2018-10-02T01:18:26.844Z,100.0
2018-10-02T01:19:28.229Z,100.0
2018-10-02T01:20:29.618Z,100.0
2018-10-02T01:21:31.002Z,100.0
2018-10-02T01:22:32.386Z,100.0
2018-10-02T01:23:33.775Z,100.0
2018-10-02T01:24:35.159Z,100.0
2018-10-02T01:25:36.549Z,100.0
2018-10-02T01:26:37.933Z,100.0
2018-10-02T01:27:39.319Z,100.0
2018-10-02T01:28:40.712Z,100.0
2018-10-02T01:29:42.092Z,100.0
2018-10-02T01:30:43.477Z,100.0
2018-10-02T01:31:44.869Z,100.0
2018-10-02T01:32:46.255Z,100.0
2018-10-02T01:33:47.638Z,100.0
2018-10-02T01:34:49.030Z,100.0
2018-10-02T01:35:50.411Z,100.0
2018-10-02T01:36:51.799Z,100.0
2018-10-02T01:37:53.186Z,100.0
2018-10-02T01:38:54.602Z,100.0
2018-10-02T01:39:55.987Z,100.0
2018-10-02T01:40:57.371Z,100.0
2018-10-02T01:41:58.754Z,100.0
2018-10-02T01:43:00.143Z,100.0
2018-10-02T01:44:01.525Z,100.0
2018-10-02T01:45:02.909Z,100.0
2018-10-02T01:46:04.300Z,100.0
2018-10-02T01:47:05.686Z,100.0
2018-10-02T01:48:07.075Z,100.0
2018-10-02T01:49:08.479Z,100.0
2018-10-02T01:50:09.866Z,100.0
2018-10-02T01:51:11.249Z,100.0
2018-10-02T01:52:12.638Z,100.0
2018-10-02T01:53:14.029Z,100.0
2018-10-02T01:54:15.414Z,100.0
2018-10-02T01:55:16.802Z,100.0
2018-10-02T01:56:18.187Z,100.0
2018-10-02T01:57:19.573Z,100.0
2018-10-02T01:58:20.964Z,100.0
2018-10-02T01:59:22.335Z,100.0
2018-10-02T02:00:23.724Z,100.0
2018-10-02T02:01:25.116Z,100.0
2018-10-02T02:02:26.499Z,100.0
2018-10-02T02:03:27.875Z,100.0
2018-10-02T02:04:29.272Z,100.0
2018-10-02T02:05:30.655Z,100.0
2018-10-02T02:06:32.157Z,100.0
2018-10-02T02:07:33.543Z,100.0
2018-10-02T02:08:34.928Z,100.0
2018-10-02T02:09:36.314Z,100.0
2018-10-02T02:10:37.698Z,100.0
2018-10-02T02:11:39.084Z,100.0
2018-10-02T02:12:40.469Z,100.0
2018-10-02T02:13:41.852Z,100.0
2018-10-02T02:14:43.236Z,100.0
2018-10-02T02:15:44.623Z,100.0
2018-10-02T02:16:46.008Z,100.0
2018-10-02T02:17:47.393Z,100.0
2018-10-02T02:18:48.778Z,99.8
2018-10-02T02:19:50.166Z,99.9
2018-10-02T02:20:51.547Z,100.0
2018-10-02T02:21:52.933Z,99.9
2018-10-02T02:22:54.320Z,100.0
2018-10-02T02:23:55.709Z,100.0
2018-10-02T02:24:57.091Z,100.0
2018-10-02T02:25:58.473Z,99.9
2018-10-02T02:26:59.859Z,99.5
2018-10-02T02:28:01.249Z,99.5
2018-10-02T02:29:02.630Z,99.2
2018-10-02T02:30:04.017Z,99.1
2018-10-02T02:31:05.400Z,98.7
2018-10-02T02:32:06.783Z,98.9
2018-10-02T02:33:08.173Z,99.5
2018-10-02T02:34:09.558Z,99.4
2018-10-02T02:35:10.946Z,98.9
2018-10-02T02:36:12.334Z,98.5
2018-10-02T02:37:13.727Z,98.6
2018-10-02T02:38:15.109Z,98.6
2018-10-02T02:39:16.490Z,98.1
2018-10-02T02:40:17.876Z,99.0
2018-10-02T02:41:19.264Z,98.2
2018-10-02T02:42:20.646Z,97.9
2018-10-02T02:43:22.030Z,97.9
2018-10-02T02:44:23.427Z,98.0
2018-10-02T02:45:24.812Z,98.1
2018-10-02T02:46:26.203Z,98.0
2018-10-02T02:47:27.591Z,97.9
2018-10-02T02:48:28.983Z,97.5
2018-10-02T02:49:30.374Z,97.8
2018-10-02T02:50:31.758Z,97.5
2018-10-02T02:51:33.147Z,97.5
2018-10-02T02:52:34.565Z,97.1
2018-10-02T02:53:35.916Z,97.7
2018-10-02T02:54:37.308Z,97.3
2018-10-02T02:55:38.694Z,97.6
2018-10-02T02:56:40.079Z,96.4
2018-10-02T02:57:41.460Z,96.3
2018-10-02T02:58:42.885Z,95.4
2018-10-02T02:59:44.267Z,95.6
2018-10-02T03:00:45.689Z,95.6
2018-10-02T03:01:47.070Z,96.2
2018-10-02T03:02:48.450Z,96.3
2018-10-02T03:03:49.833Z,95.5
2018-10-02T03:04:51.221Z,95.7
2018-10-02T03:05:52.607Z,95.7
2018-10-02T03:06:53.994Z,95.4
2018-10-02T03:07:55.381Z,95.3
2018-10-02T03:08:56.767Z,94.8
2018-10-02T03:09:58.148Z,94.7
2018-10-02T03:10:59.553Z,94.4
2018-10-02T03:12:00.922Z,94.4
2018-10-02T03:13:02.304Z,94.6
2018-10-02T03:14:03.687Z,94.4
2018-10-02T03:15:05.070Z,93.8
2018-10-02T03:16:06.455Z,93.8
2018-10-02T03:17:07.844Z,94.2
2018-10-02T03:18:09.225Z,93.6
2018-10-02T03:19:10.610Z,93.7
2018-10-02T03:20:12.001Z,93.9
2018-10-02T03:21:13.377Z,94.2
2018-10-02T03:22:14.766Z,93.7
2018-10-02T03:23:16.141Z,93.3
2018-10-02T03:24:17.529Z,93.3
2018-10-02T03:25:18.913Z,93.4
2018-10-02T03:26:20.301Z,92.8
2018-10-02T03:27:21.685Z,92.7
2018-10-02T03:28:23.073Z,91.8
2018-10-02T03:29:24.456Z,92.2
2018-10-02T03:30:25.838Z,92.1
2018-10-02T03:31:27.222Z,91.9
2018-10-02T03:32:28.610Z,91.1
2018-10-02T03:33:30.001Z,91.3
2018-10-02T03:34:31.383Z,91.2
2018-10-02T03:35:32.767Z,90.7
2018-10-02T03:36:34.149Z,90.7
2018-10-02T03:37:35.536Z,91.0
2018-10-02T03:38:36.926Z,90.9
2018-10-02T03:39:38.315Z,91.0
2018-10-02T03:40:39.685Z,90.0
2018-10-02T03:41:41.085Z,90.4
2018-10-02T03:42:42.456Z,90.8
2018-10-02T03:43:43.846Z,90.6
2018-10-02T03:44:45.219Z,90.4
2018-10-02T03:45:46.608Z,89.6
2018-10-02T03:46:48.022Z,89.3
2018-10-02T03:47:49.544Z,89.6
2018-10-02T03:48:51.009Z,89.3
2018-10-02T03:49:52.400Z,88.6
2018-10-02T03:50:53.786Z,88.9
2018-10-02T03:51:55.236Z,88.8
2018-10-02T03:52:57.511Z,88.6
2018-10-02T03:53:58.896Z,88.5
2018-10-02T03:55:00.287Z,89.2
2018-10-02T03:56:01.693Z,88.6
2018-10-02T03:57:03.091Z,88.3
2018-10-02T03:58:04.468Z,88.4
2018-10-02T03:59:05.851Z,88.2
2018-10-02T04:00:07.233Z,87.8
2018-10-02T04:01:08.619Z,87.9
2018-10-02T04:02:10.011Z,87.7
2018-10-02T04:03:11.397Z,87.7
2018-10-02T04:04:12.782Z,87.8
2018-10-02T04:05:14.165Z,87.8
2018-10-02T04:06:15.554Z,87.8
2018-10-02T04:07:16.935Z,87.8
2018-10-02T04:08:18.321Z,87.7
2018-10-02T04:09:19.703Z,87.3
2018-10-02T04:10:21.089Z,86.7
2018-10-02T04:11:22.476Z,86.8
2018-10-02T04:12:23.861Z,86.7
2018-10-02T04:13:25.247Z,86.3
2018-10-02T04:14:26.635Z,86.8
2018-10-02T04:15:28.020Z,86.4
2018-10-02T04:16:29.413Z,86.3
2018-10-02T04:17:30.802Z,86.2
2018-10-02T04:18:32.183Z,85.8
2018-10-02T04:19:33.569Z,85.3
2018-10-02T04:20:34.968Z,85.7
2018-10-02T04:21:36.332Z,85.2
2018-10-02T04:22:37.725Z,86.0
2018-10-02T04:23:39.109Z,85.4
2018-10-02T04:24:40.499Z,85.5
2018-10-02T04:25:41.881Z,85.5
2018-10-02T04:26:43.265Z,84.4
2018-10-02T04:27:44.658Z,85.0
2018-10-02T04:28:46.031Z,84.6
2018-10-02T04:29:48.099Z,84.8
2018-10-02T04:30:49.478Z,84.3
2018-10-02T04:31:50.864Z,85.0
2018-10-02T04:32:52.247Z,85.0
2018-10-02T04:33:53.750Z,85.2
2018-10-02T04:34:55.026Z,85.1
2018-10-02T04:35:56.411Z,85.1
2018-10-02T04:36:57.798Z,84.6
2018-10-02T04:37:59.252Z,84.4
2018-10-02T04:39:00.642Z,84.5
2018-10-02T04:40:02.026Z,84.1
2018-10-02T04:41:03.415Z,84.1
2018-10-02T04:42:04.798Z,84.1
2018-10-02T04:43:06.184Z,84.1
2018-10-02T04:44:07.573Z,83.6
2018-10-02T04:45:08.974Z,83.8
2018-10-02T04:46:10.361Z,83.7
2018-10-02T04:47:11.743Z,83.9
2018-10-02T04:48:13.134Z,83.1
2018-10-02T04:49:14.517Z,83.3
2018-10-02T04:50:15.908Z,82.4
2018-10-02T04:51:17.293Z,83.4
2018-10-02T04:52:18.680Z,83.3
2018-10-02T04:53:20.067Z,83.2
2018-10-02T04:54:21.451Z,83.2
2018-10-02T04:55:22.846Z,83.1
2018-10-02T04:56:24.280Z,83.2
2018-10-02T04:57:25.605Z,83.2
2018-10-02T04:58:26.994Z,83.0
2018-10-02T04:59:28.374Z,83.1
2018-10-02T05:00:29.757Z,83.9
2018-10-02T05:01:31.141Z,82.9
2018-10-02T05:02:32.526Z,84.1
2018-10-02T05:03:33.940Z,83.2
2018-10-02T05:04:35.330Z,83.1
2018-10-02T05:05:36.718Z,83.1
2018-10-02T05:06:38.117Z,83.9
2018-10-02T05:07:39.510Z,83.1
2018-10-02T05:08:40.955Z,83.3
2018-10-02T05:09:42.277Z,82.5
2018-10-02T05:10:43.662Z,83.4
2018-10-02T05:11:45.066Z,83.1
2018-10-02T05:12:46.432Z,83.2
2018-10-02T05:13:47.822Z,83.2
2018-10-02T05:14:49.205Z,83.1
2018-10-02T05:15:50.589Z,83.3
2018-10-02T05:16:51.973Z,83.2
2018-10-02T05:17:53.361Z,82.9
2018-10-02T05:18:54.748Z,82.9
2018-10-02T05:19:56.139Z,83.3
2018-10-02T05:20:57.529Z,82.9
2018-10-02T05:21:58.925Z,83.6
2018-10-02T05:23:00.322Z,83.3
2018-10-02T05:24:01.720Z,83.0
2018-10-02T05:25:03.101Z,82.8
2018-10-02T05:26:04.493Z,82.8
2018-10-02T05:27:05.877Z,82.8
2018-10-02T05:28:07.305Z,82.5
2018-10-02T05:29:08.816Z,82.5
2018-10-02T05:30:10.194Z,82.4
2018-10-02T05:31:11.587Z,82.5
2018-10-02T05:32:12.976Z,82.7
2018-10-02T05:33:14.391Z,82.9
2018-10-02T05:34:15.783Z,82.3
2018-10-02T05:35:17.353Z,82.5
2018-10-02T05:36:18.558Z,82.5
2018-10-02T05:37:19.950Z,82.3
2018-10-02T05:38:21.336Z,81.9
2018-10-02T05:39:22.724Z,81.7
2018-10-02T05:40:24.111Z,81.7
2018-10-02T05:41:25.499Z,81.9
2018-10-02T05:42:26.888Z,82.5
2018-10-02T05:43:28.287Z,82.5
2018-10-02T05:44:29.658Z,82.0
2018-10-02T05:45:31.045Z,82.1
2018-10-02T05:46:32.434Z,82.2
2018-10-02T05:47:33.824Z,81.9
2018-10-02T05:48:35.208Z,81.5
2018-10-02T05:49:36.601Z,81.8
2018-10-02T05:50:38.045Z,80.8
2018-10-02T05:51:39.375Z,81.3
2018-10-02T05:52:40.757Z,81.2
2018-10-02T05:53:42.198Z,81.4
2018-10-02T05:54:43.585Z,80.8
2018-10-02T05:55:44.971Z,81.2
2018-10-02T05:56:46.365Z,81.0
2018-10-02T05:57:47.747Z,81.1
2018-10-02T05:58:49.131Z,81.2
2018-10-02T05:59:50.517Z,81.2
2018-10-02T06:00:51.905Z,81.4
2018-10-02T06:01:53.297Z,80.8
2018-10-02T06:02:54.694Z,80.6
2018-10-02T06:03:56.102Z,80.7
2018-10-02T06:04:57.466Z,80.5
2018-10-02T06:05:58.855Z,80.3
2018-10-02T06:07:00.254Z,79.8
2018-10-02T06:08:01.644Z,79.2
2018-10-02T06:09:03.050Z,79.5
2018-10-02T06:10:04.474Z,80.2
2018-10-02T06:11:05.829Z,79.8
2018-10-02T06:12:07.208Z,80.0
2018-10-02T06:13:08.611Z,80.2
2018-10-02T06:14:09.992Z,79.9
2018-10-02T06:15:11.394Z,79.9
2018-10-02T06:16:12.782Z,79.1
2018-10-02T06:17:14.188Z,78.2
2018-10-02T06:18:15.578Z,78.7
2018-10-02T06:19:16.994Z,78.3
2018-10-02T06:20:18.383Z,78.4
2018-10-02T06:21:19.774Z,78.3
2018-10-02T06:22:21.162Z,78.5
2018-10-02T06:23:22.549Z,78.6
2018-10-02T06:24:23.938Z,77.9
2018-10-02T06:25:25.332Z,77.6
2018-10-02T06:26:26.723Z,78.2
2018-10-02T06:27:28.112Z,78.8
2018-10-02T06:28:29.496Z,78.9
2018-10-02T06:29:30.908Z,79.6
2018-10-02T06:30:32.292Z,80.1
2018-10-02T06:31:33.682Z,80.2
2018-10-02T06:32:35.089Z,80.4
2018-10-02T06:33:36.462Z,80.0
2018-10-02T06:34:37.867Z,80.4
2018-10-02T06:35:39.266Z,79.8
2018-10-02T06:36:40.671Z,80.9
2018-10-02T06:37:42.038Z,80.8
2018-10-02T06:38:43.457Z,81.8
2018-10-02T06:39:44.823Z,81.7
2018-10-02T06:40:46.207Z,81.4
2018-10-02T06:41:47.593Z,80.7
2018-10-02T06:42:48.982Z,81.7
2018-10-02T06:43:50.472Z,81.6
2018-10-02T06:44:51.788Z,82.1
2018-10-02T06:45:53.176Z,81.9
2018-10-02T06:46:54.573Z,82.1
2018-10-02T06:47:55.992Z,81.3
2018-10-02T06:48:57.378Z,80.9
2018-10-02T06:49:58.762Z,80.7
2018-10-02T06:51:00.216Z,80.6
2018-10-02T06:52:01.729Z,81.2
2018-10-02T06:53:02.972Z,81.0
2018-10-02T06:54:04.369Z,81.1
2018-10-02T06:55:05.758Z,80.7
2018-10-02T06:56:07.151Z,80.7
2018-10-02T06:57:08.604Z,80.6
2018-10-02T06:58:10.103Z,81.3
2018-10-02T06:59:11.488Z,80.6
2018-10-02T07:00:12.886Z,80.7
2018-10-02T07:01:14.271Z,80.9
2018-10-02T07:02:15.674Z,81.2
2018-10-02T07:03:17.063Z,81.3
2018-10-02T07:04:18.462Z,80.6
2018-10-02T07:05:19.852Z,80.6
2018-10-02T07:06:21.249Z,80.9
2018-10-02T07:07:22.728Z,80.6
2018-10-02T07:08:24.129Z,81.0
2018-10-02T07:09:25.533Z,81.1
2018-10-02T07:10:26.965Z,81.2
2018-10-02T07:11:28.361Z,81.0
2018-10-02T07:12:29.793Z,81.5
2018-10-02T07:13:31.146Z,81.0
2018-10-02T07:14:32.609Z,80.7
2018-10-02T07:15:33.952Z,81.0
2018-10-02T07:16:35.349Z,80.5
2018-10-02T07:17:36.841Z,80.6
2018-10-02T07:18:38.127Z,81.5
2018-10-02T07:19:39.945Z,80.9
2018-10-02T07:20:41.404Z,81.0
2018-10-02T07:21:42.740Z,81.8
2018-10-02T07:22:44.151Z,82.1
2018-10-02T07:23:45.539Z,82.5
2018-10-02T07:24:46.930Z,82.3
2018-10-02T07:25:48.321Z,82.5
2018-10-02T07:26:49.918Z,82.5
2018-10-02T07:27:51.253Z,82.9
2018-10-02T07:28:52.501Z,82.6
2018-10-02T07:29:53.897Z,82.9
2018-10-02T07:30:55.301Z,83.1
2018-10-02T07:31:56.957Z,83.1
2018-10-02T07:32:58.406Z,83.2
2018-10-02T07:33:59.874Z,83.2
2018-10-02T07:35:01.225Z,83.4
2018-10-02T07:36:02.655Z,83.2
2018-10-02T07:37:04.092Z,83.1
2018-10-02T07:38:05.399Z,83.1
2018-10-02T07:39:06.848Z,83.5
2018-10-02T07:40:08.178Z,83.3
2018-10-02T07:41:09.566Z,83.3
2018-10-02T07:42:10.961Z,83.1
2018-10-02T07:43:12.352Z,83.5
2018-10-02T07:44:13.744Z,82.8
2018-10-02T07:45:15.145Z,84.2
2018-10-02T07:46:16.527Z,83.8
2018-10-02T07:47:17.916Z,83.6
2018-10-02T07:48:19.324Z,83.0
2018-10-02T07:49:20.711Z,83.4
2018-10-02T07:50:22.113Z,83.4
2018-10-02T07:51:23.489Z,83.3
2018-10-02T07:52:24.888Z,83.1
2018-10-02T07:53:26.281Z,83.2
2018-10-02T07:54:27.668Z,83.8
2018-10-02T07:55:29.119Z,84.0
2018-10-02T07:56:30.513Z,83.8
2018-10-02T07:57:31.849Z,84.0
2018-10-02T07:58:33.247Z,83.8
2018-10-02T07:59:34.711Z,83.9
2018-10-02T08:00:36.074Z,83.6
2018-10-02T08:01:37.464Z,84.0
2018-10-02T08:02:38.866Z,83.8
2018-10-02T08:03:40.243Z,83.7
2018-10-02T08:04:41.666Z,83.7
2018-10-02T08:05:43.074Z,83.8
2018-10-02T08:06:44.466Z,83.8
2018-10-02T08:07:45.897Z,84.1
2018-10-02T08:08:47.381Z,84.2
2018-10-02T08:09:48.738Z,85.3
2018-10-02T08:10:50.143Z,85.1
2018-10-02T08:11:51.544Z,85.3
2018-10-02T08:12:52.934Z,85.5
2018-10-02T08:13:54.341Z,85.6
2018-10-02T08:14:55.770Z,85.3
2018-10-02T08:15:57.121Z,85.9
2018-10-02T08:16:58.540Z,85.5
2018-10-02T08:18:00.023Z,85.7
2018-10-02T08:19:01.361Z,86.4
2018-10-02T08:20:02.802Z,86.5
2018-10-02T08:21:04.282Z,86.4
2018-10-02T08:22:05.552Z,86.5
2018-10-02T08:23:06.946Z,86.8
2018-10-02T08:24:08.380Z,87.1
2018-10-02T08:25:09.779Z,87.6
2018-10-02T08:26:11.168Z,87.9
2018-10-02T08:27:12.708Z,87.6
2018-10-02T08:28:13.959Z,88.8
2018-10-02T08:29:15.348Z,88.5
2018-10-02T08:30:16.843Z,89.0
2018-10-02T08:31:18.168Z,89.4
2018-10-02T08:32:19.559Z,89.0
2018-10-02T08:33:20.954Z,89.7
2018-10-02T08:34:22.348Z,90.2
2018-10-02T08:35:23.862Z,90.3
2018-10-02T08:36:25.149Z,91.2
2018-10-02T08:37:26.542Z,90.8
2018-10-02T08:38:28.088Z,90.8
2018-10-02T08:39:29.451Z,91.4
2018-10-02T08:40:30.867Z,91.4
2018-10-02T08:41:32.261Z,92.1
2018-10-02T08:42:33.716Z,92.0
2018-10-02T08:43:35.231Z,92.4
2018-10-02T08:44:36.545Z,92.4
2018-10-02T08:45:37.918Z,93.2
2018-10-02T08:46:39.307Z,93.1
2018-10-02T08:47:40.736Z,93.2
2018-10-02T08:48:42.099Z,92.6
2018-10-02T08:49:43.592Z,92.5
2018-10-02T08:50:45.034Z,92.6
2018-10-02T08:51:46.442Z,92.7
2018-10-02T08:52:47.783Z,92.7
2018-10-02T08:53:49.260Z,92.6
2018-10-02T08:54:50.626Z,92.6
2018-10-02T08:55:52.008Z,93.1
2018-10-02T08:56:53.406Z,93.2
2018-10-02T08:57:54.793Z,93.3
2018-10-02T08:58:56.200Z,93.2
2018-10-02T08:59:57.612Z,93.8
2018-10-02T09:00:59.013Z,93.9
2018-10-02T09:02:00.424Z,93.9
2018-10-02T09:03:01.909Z,94.1
2018-10-02T09:04:03.265Z,94.0
2018-10-02T09:05:04.656Z,94.1
2018-10-02T09:06:06.041Z,94.6
2018-10-02T09:07:07.484Z,94.3
2018-10-02T09:08:08.869Z,93.8
2018-10-02T09:09:10.287Z,94.0
2018-10-02T09:10:11.667Z,93.9
2018-10-02T09:11:13.072Z,93.9
2018-10-02T09:12:14.456Z,93.7
2018-10-02T09:13:15.844Z,93.4
2018-10-02T09:14:17.234Z,93.8
2018-10-02T09:15:18.636Z,94.4
2018-10-02T09:16:20.071Z,94.6
2018-10-02T09:17:21.445Z,94.8
2018-10-02T09:18:22.901Z,95.2
2018-10-02T09:19:24.229Z,95.7
2018-10-02T09:20:25.626Z,96.1
2018-10-02T09:21:27.042Z,96.2
2018-10-02T09:22:28.409Z,96.3
2018-10-02T09:23:29.806Z,97.5
2018-10-02T09:24:31.212Z,99.4
2018-10-02T09:25:32.573Z,100.0
2018-10-02T09:26:33.992Z,100.0
2018-10-02T09:27:35.409Z,100.0
2018-10-02T09:28:36.847Z,100.0
2018-10-02T09:29:38.167Z,100.0
2018-10-02T09:30:39.633Z,100.0
2018-10-02T09:31:40.979Z,100.0
2018-10-02T09:32:42.373Z,100.0
2018-10-02T09:33:43.765Z,100.0
2018-10-02T09:34:45.152Z,100.0
2018-10-02T09:35:46.547Z,100.0
2018-10-02T09:36:47.949Z,100.0
2018-10-02T09:37:49.287Z,100.0
2018-10-02T09:38:50.679Z,100.0
2018-10-02T09:39:52.136Z,100.0
2018-10-02T09:40:53.515Z,100.0
2018-10-02T09:41:54.911Z,100.0
2018-10-02T09:42:56.353Z,100.0
2018-10-02T09:43:57.715Z,100.0
2018-10-02T09:44:59.100Z,100.0
2018-10-02T09:46:00.568Z,100.0
2018-10-02T09:47:01.889Z,100.0
2018-10-02T09:48:03.289Z,100.0
2018-10-02T09:49:04.696Z,100.0
2018-10-02T09:50:06.083Z,100.0
2018-10-02T09:51:07.547Z,100.0
2018-10-02T09:52:08.900Z,100.0
2018-10-02T09:53:10.295Z,100.0
2018-10-02T09:54:11.691Z,100.0
2018-10-02T09:55:13.084Z,100.0
2018-10-02T09:56:14.480Z,100.0
2018-10-02T09:57:15.878Z,100.0
2018-10-02T09:58:17.266Z,100.0
2018-10-02T09:59:18.662Z,100.0
2018-10-02T10:00:20.065Z,100.0
2018-10-02T10:01:21.457Z,100.0
2018-10-02T10:02:22.857Z,100.0
2018-10-02T10:03:24.247Z,100.0
2018-10-02T10:04:25.717Z,100.0
2018-10-02T10:05:27.037Z,100.0
2018-10-02T10:06:28.427Z,100.0
2018-10-02T10:07:29.820Z,100.0
2018-10-02T10:08:31.215Z,100.0
2018-10-02T10:09:32.605Z,100.0
2018-10-02T10:10:34.071Z,100.0
2018-10-02T10:11:35.395Z,100.0
2018-10-02T10:12:36.788Z,100.0
2018-10-02T10:13:38.186Z,100.0
2018-10-02T10:14:39.575Z,100.0
2018-10-02T10:15:40.985Z,100.0
2018-10-02T10:16:42.564Z,100.0
2018-10-02T10:17:43.765Z,100.0
2018-10-02T10:18:45.163Z,100.0
2018-10-02T10:19:46.563Z,100.0
2018-10-02T10:20:47.953Z,100.0
2018-10-02T10:21:49.355Z,100.0
2018-10-02T10:22:50.763Z,100.0
2018-10-02T10:23:52.132Z,100.0
2018-10-02T10:24:53.523Z,100.0
2018-10-02T10:25:54.915Z,100.0
2018-10-02T10:26:56.305Z,100.0
2018-10-02T10:27:57.705Z,100.0
2018-10-02T10:28:59.178Z,100.0
2018-10-02T10:30:00.505Z,100.0
2018-10-02T10:31:01.969Z,100.0
2018-10-02T10:32:03.404Z,100.0
2018-10-02T10:33:04.795Z,100.0
2018-10-02T10:34:06.288Z,100.0
2018-10-02T10:35:07.682Z,100.0
2018-10-02T10:36:09.086Z,100.0
2018-10-02T10:37:10.603Z,100.0
2018-10-02T10:38:11.987Z,100.0
2018-10-02T10:39:13.386Z,100.0
2018-10-02T10:40:14.785Z,100.0
2018-10-02T10:41:16.183Z,100.0
2018-10-02T10:42:17.595Z,100.0
2018-10-02T10:43:18.989Z,100.0
2018-10-02T10:44:20.389Z,100.0
2018-10-02T10:45:21.777Z,100.0
2018-10-02T10:46:23.214Z,100.0
2018-10-02T10:47:24.567Z,100.0
2018-10-02T10:48:25.959Z,100.0
2018-10-02T10:49:27.361Z,100.0
2018-10-02T10:50:28.760Z,100.0
2018-10-02T10:51:30.158Z,100.0
2018-10-02T10:52:31.568Z,100.0
2018-10-02T10:53:32.944Z,100.0
2018-10-02T10:54:34.337Z,100.0
2018-10-02T10:55:35.728Z,100.0
2018-10-02T10:56:37.201Z,100.0
2018-10-02T10:57:38.532Z,100.0
2018-10-02T10:58:39.964Z,100.0
2018-10-02T10:59:41.316Z,100.0
2018-10-02T11:00:42.709Z,100.0
2018-10-02T11:01:44.103Z,100.0
2018-10-02T11:02:45.491Z,100.0
2018-10-02T11:03:46.882Z,100.0
2018-10-02T11:04:48.290Z,100.0
2018-10-02T11:05:49.687Z,100.0
2018-10-02T11:06:51.087Z,100.0
2018-10-02T11:07:52.527Z,100.0
2018-10-02T11:08:53.914Z,100.0
2018-10-02T11:09:55.308Z,100.0
2018-10-02T11:10:56.702Z,100.0
2018-10-02T11:11:58.101Z,100.0
2018-10-02T11:12:59.500Z,100.0
2018-10-02T11:14:00.926Z,100.0
2018-10-02T11:15:02.348Z,100.0
2018-10-02T11:16:03.740Z,100.0
2018-10-02T11:17:05.137Z,100.0
2018-10-02T11:18:06.543Z,100.0
2018-10-02T11:19:07.934Z,100.0
2018-10-02T11:20:09.335Z,100.0
2018-10-02T11:21:10.752Z,100.0
2018-10-02T11:22:12.162Z,100.0
2018-10-02T11:23:13.556Z,100.0
2018-10-02T11:24:15.040Z,100.0
2018-10-02T11:25:16.389Z,100.0
2018-10-02T11:26:17.746Z,100.0
2018-10-02T11:27:19.141Z,100.0
2018-10-02T11:28:20.539Z,100.0
2018-10-02T11:29:21.937Z,100.0
2018-10-02T11:30:23.327Z,100.0
2018-10-02T11:31:24.812Z,100.0
2018-10-02T11:32:26.136Z,100.0
2018-10-02T11:33:27.530Z,100.0
2018-10-02T11:34:28.926Z,100.0
2018-10-02T11:35:30.340Z,100.0
2018-10-02T11:36:31.688Z,100.0
2018-10-02T11:37:33.089Z,100.0
2018-10-02T11:38:34.475Z,100.0
2018-10-02T11:39:35.873Z,100.0
2018-10-02T11:40:37.277Z,100.0
2018-10-02T11:41:38.668Z,100.0
2018-10-02T11:42:40.057Z,100.0
2018-10-02T11:43:41.539Z,100.0
2018-10-02T11:44:42.992Z,100.0
2018-10-02T11:45:44.241Z,100.0
2018-10-02T11:46:45.635Z,100.0
2018-10-02T11:47:47.031Z,100.0
2018-10-02T11:48:48.425Z,100.0
2018-10-02T11:49:49.900Z,100.0
2018-10-02T11:50:51.245Z,100.0
2018-10-02T11:51:52.609Z,100.0
2018-10-02T11:52:54.005Z,100.0
2018-10-02T11:53:55.401Z,100.0
2018-10-02T11:54:56.798Z,100.0
2018-10-02T11:55:58.194Z,100.0
2018-10-02T11:56:59.592Z,100.0
2018-10-02T11:58:01.026Z,100.0
2018-10-02T11:59:02.498Z,100.0
2018-10-02T12:00:03.892Z,100.0
2018-10-02T12:01:05.314Z,100.0
2018-10-02T12:02:06.683Z,100.0
2018-10-02T12:03:08.100Z,100.0
2018-10-02T12:04:09.467Z,100.0
2018-10-02T12:05:10.859Z,100.0
2018-10-02T12:06:12.252Z,100.0
2018-10-02T12:07:13.644Z,100.0
2018-10-02T12:08:15.054Z,100.0
2018-10-02T12:09:16.482Z,100.0
2018-10-02T12:10:17.826Z,100.0
2018-10-02T12:11:19.261Z,100.0
2018-10-02T12:12:20.695Z,100.0
2018-10-02T12:13:22.113Z,100.0
2018-10-02T12:14:23.682Z,100.0
2018-10-02T12:15:24.886Z,100.0
2018-10-02T12:16:26.282Z,100.0
2018-10-02T12:17:27.696Z,100.0
2018-10-02T12:18:29.088Z,100.0
2018-10-02T12:19:30.567Z,100.0
2018-10-02T12:20:31.889Z,100.0
2018-10-02T12:21:33.289Z,100.0
2018-10-02T12:22:34.692Z,100.0
2018-10-02T12:23:36.103Z,100.0
2018-10-02T12:24:37.482Z,100.0
2018-10-02T12:25:38.884Z,100.0
2018-10-02T12:26:40.294Z,100.0
2018-10-02T12:27:41.685Z,100.0
2018-10-02T12:28:43.084Z,100.0
2018-10-02T12:29:44.486Z,100.0
2018-10-02T12:30:45.874Z,100.0
2018-10-02T12:31:47.271Z,100.0
2018-10-02T12:32:48.662Z,100.0
2018-10-02T12:33:50.056Z,100.0
2018-10-02T12:34:51.469Z,100.0
2018-10-02T12:35:52.864Z,100.0
2018-10-02T12:36:54.257Z,100.0
2018-10-02T12:37:55.652Z,100.0
2018-10-02T12:38:57.047Z,100.0
2018-10-02T12:39:58.540Z,100.0
2018-10-02T12:40:59.860Z,100.0
2018-10-02T12:42:01.250Z,100.0
2018-10-02T12:43:02.643Z,100.0
2018-10-02T12:44:04.891Z,100.0
2018-10-02T12:45:06.285Z,100.0
2018-10-02T12:46:07.689Z,100.0
2018-10-02T12:47:09.072Z,100.0
2018-10-02T12:48:10.470Z,100.0
2018-10-02T12:49:11.865Z,100.0
2018-10-02T12:50:13.259Z,100.0
2018-10-02T12:51:14.655Z,100.0
2018-10-02T12:52:16.067Z,100.0
2018-10-02T12:53:17.444Z,100.0
2018-10-02T12:54:18.835Z,100.0
2018-10-02T12:55:20.234Z,100.0
2018-10-02T12:56:21.629Z,100.0
2018-10-02T12:57:23.023Z,100.0
2018-10-02T12:58:24.425Z,100.0
2018-10-02T12:59:25.931Z,100.0
2018-10-02T13:00:27.181Z,100.0
2018-10-02T13:01:28.597Z,100.0
2018-10-02T13:02:29.995Z,100.0
2018-10-02T13:03:31.449Z,100.0
2018-10-02T13:04:32.788Z,100.0
2018-10-02T13:05:34.185Z,100.0
2018-10-02T13:06:35.577Z,100.0
2018-10-02T13:07:36.973Z,100.0
2018-10-02T13:08:38.362Z,100.0
2018-10-02T13:09:39.755Z,100.0
2018-10-02T13:10:41.153Z,100.0
2018-10-02T13:11:42.549Z,100.0
2018-10-02T13:12:43.956Z,100.0
2018-10-02T13:13:45.339Z,100.0
2018-10-02T13:14:46.733Z,100.0
2018-10-02T13:15:48.165Z,100.0
2018-10-02T13:16:49.565Z,100.0
2018-10-02T13:17:50.952Z,100.0
2018-10-02T13:18:52.351Z,100.0
2018-10-02T13:19:53.769Z,100.0
2018-10-02T13:20:55.143Z,100.0
2018-10-02T13:21:56.546Z,100.0
2018-10-02T13:22:57.928Z,100.0
2018-10-02T13:23:59.324Z,100.0
2018-10-02T13:25:00.715Z,100.0